createdAt,value
2022-10-16T00:01:33.394Z,16.40
2022-10-16T00:04:01.851Z,16.40
2022-10-16T00:06:29.800Z,16.40
2022-10-16T00:08:57.486Z,16.40
2022-10-16T00:11:37.583Z,16.40
2022-10-16T00:14:07.374Z,16.40
2022-10-16T00:16:35.760Z,16.30
2022-10-16T00:19:02.453Z,16.30
2022-10-16T00:21:30.798Z,16.20
2022-10-16T00:24:11.934Z,16.20
2022-10-16T00:26:39.944Z,16.10
2022-10-16T00:29:07.825Z,16.00
2022-10-16T00:31:35.277Z,16.00
2022-10-16T00:34:02.115Z,15.90
2022-10-16T00:36:28.761Z,15.90
2022-10-16T00:38:58.374Z,15.90
2022-10-16T00:41:26.873Z,15.90
2022-10-16T00:43:59.727Z,15.90
2022-10-16T00:46:28.821Z,15.90
2022-10-16T00:49:06.002Z,15.90
2022-10-16T00:51:38.623Z,15.90
2022-10-16T00:54:13.809Z,15.90
2022-10-16T00:56:46.642Z,15.80
2022-10-16T00:59:26.113Z,15.80
2022-10-16T01:01:56.610Z,15.80
2022-10-16T01:04:25.293Z,15.80
2022-10-16T01:07:13.614Z,15.80
2022-10-16T01:10:03.437Z,15.80
2022-10-16T01:13:07.827Z,15.80
2022-10-16T01:15:46.316Z,15.70
2022-10-16T01:18:19.901Z,15.70
2022-10-16T01:21:01.793Z,15.60
2022-10-16T01:23:33.494Z,15.60
2022-10-16T01:26:18.031Z,15.60
2022-10-16T01:29:01.240Z,15.60
2022-10-16T01:31:32.418Z,15.60
2022-10-16T01:34:05.435Z,15.60
2022-10-16T01:36:54.209Z,15.60
2022-10-16T01:39:25.947Z,15.60
2022-10-16T01:42:17.709Z,15.60
2022-10-16T01:44:46.639Z,15.60
2022-10-16T01:47:17.845Z,15.60
2022-10-16T01:49:45.933Z,15.60
2022-10-16T01:52:16.227Z,15.60
2022-10-16T01:54:46.842Z,15.60
2022-10-16T01:57:15.190Z,15.60
2022-10-16T01:59:47.202Z,15.60
2022-10-16T02:02:15.893Z,15.60
2022-10-16T02:04:52.349Z,15.60
2022-10-16T02:07:19.018Z,15.60
2022-10-16T02:09:48.248Z,15.60
2022-10-16T02:12:26.473Z,15.60
2022-10-16T02:14:54.387Z,15.60
2022-10-16T02:17:21.504Z,15.60
2022-10-16T02:19:50.556Z,15.60
2022-10-16T02:22:33.554Z,15.60
2022-10-16T02:25:05.656Z,15.60
2022-10-16T02:27:59.836Z,15.60
2022-10-16T02:30:33.306Z,15.60
2022-10-16T02:33:02.717Z,15.60
2022-10-16T02:35:32.547Z,15.60
2022-10-16T02:38:00.082Z,15.60
2022-10-16T02:40:27.575Z,15.60
2022-10-16T02:42:56.052Z,15.70
2022-10-16T02:45:23.959Z,15.60
2022-10-16T02:47:50.797Z,15.60
2022-10-16T02:50:17.554Z,15.50
2022-10-16T02:52:46.651Z,15.50
2022-10-16T02:55:13.407Z,15.50
2022-10-16T02:57:41.259Z,15.50
2022-10-16T03:00:10.305Z,15.50
2022-10-16T03:02:36.884Z,15.50
2022-10-16T03:05:03.706Z,15.50
2022-10-16T03:07:30.347Z,15.50
2022-10-16T03:09:56.983Z,15.50
2022-10-16T03:12:23.685Z,15.50
2022-10-16T03:14:50.311Z,15.50
2022-10-16T03:17:17.785Z,15.50
2022-10-16T03:19:44.636Z,15.60
2022-10-16T03:22:11.554Z,15.60
2022-10-16T03:24:40.520Z,15.60
2022-10-16T03:27:07.218Z,15.60
2022-10-16T03:29:33.897Z,15.60
2022-10-16T03:32:01.186Z,15.60
2022-10-16T03:34:27.852Z,15.60
2022-10-16T03:36:54.693Z,15.60
2022-10-16T03:39:21.380Z,15.70
2022-10-16T03:41:48.316Z,15.70
2022-10-16T03:44:15.014Z,15.70
2022-10-16T03:46:41.982Z,15.70
2022-10-16T03:49:09.819Z,15.70
2022-10-16T03:51:36.970Z,15.70
2022-10-16T03:54:03.804Z,15.70
2022-10-16T03:56:33.127Z,15.70
2022-10-16T03:58:59.757Z,15.70
2022-10-16T04:01:28.594Z,15.60
2022-10-16T04:03:55.219Z,15.60
2022-10-16T04:06:21.907Z,15.60
2022-10-16T04:08:48.594Z,15.70
2022-10-16T04:11:15.268Z,15.70
2022-10-16T04:13:42.526Z,15.60
2022-10-16T04:16:09.151Z,15.70
2022-10-16T04:18:36.213Z,15.70
2022-10-16T04:21:07.269Z,15.60
2022-10-16T04:23:34.351Z,15.70
2022-10-16T04:26:03.755Z,15.70
2022-10-16T04:28:30.608Z,15.70
2022-10-16T04:30:57.293Z,15.70
2022-10-16T04:33:29.166Z,15.70
2022-10-16T04:36:00.415Z,15.70
2022-10-16T04:38:27.466Z,15.70
2022-10-16T04:40:54.184Z,15.60
2022-10-16T04:43:21.653Z,15.70
2022-10-16T04:45:48.445Z,15.60
2022-10-16T04:48:15.128Z,15.60
2022-10-16T04:50:42.562Z,15.60
2022-10-16T04:53:09.417Z,15.60
2022-10-16T04:55:36.135Z,15.60
2022-10-16T04:58:02.850Z,15.60
2022-10-16T05:00:29.545Z,15.60
2022-10-16T05:02:56.307Z,15.60
2022-10-16T05:05:24.017Z,15.60
2022-10-16T05:07:50.771Z,15.50
2022-10-16T05:10:17.998Z,15.50
2022-10-16T05:12:46.902Z,15.50
2022-10-16T05:15:13.731Z,15.50
2022-10-16T05:17:42.615Z,15.50
2022-10-16T05:20:12.049Z,15.50
2022-10-16T05:22:38.742Z,15.40
2022-10-16T05:25:05.983Z,15.40
2022-10-16T05:27:32.706Z,15.50
2022-10-16T05:29:59.362Z,15.50
2022-10-16T05:32:26.223Z,15.40
2022-10-16T05:34:53.028Z,15.40
2022-10-16T05:37:19.744Z,15.40
2022-10-16T05:39:46.369Z,15.50
2022-10-16T05:42:13.106Z,15.50
2022-10-16T05:44:41.880Z,15.50
2022-10-16T05:47:08.595Z,15.50
2022-10-16T05:49:37.850Z,15.50
2022-10-16T05:52:11.827Z,15.50
2022-10-16T05:54:40.626Z,15.50
2022-10-16T05:57:07.303Z,15.50
2022-10-16T05:59:33.945Z,15.50
2022-10-16T06:02:01.015Z,15.50
2022-10-16T06:04:27.661Z,15.50
2022-10-16T06:06:54.322Z,15.50
2022-10-16T06:09:20.984Z,15.50
2022-10-16T06:11:47.606Z,15.50
2022-10-16T06:14:14.322Z,15.50
2022-10-16T06:16:43.595Z,15.50
2022-10-16T06:19:12.656Z,15.60
2022-10-16T06:21:41.730Z,15.60
2022-10-16T06:24:09.021Z,15.50
2022-10-16T06:26:35.652Z,15.60
2022-10-16T06:29:02.788Z,15.60
2022-10-16T06:31:31.954Z,15.60
2022-10-16T06:33:59.345Z,15.60
2022-10-16T06:36:27.039Z,15.60
2022-10-16T06:38:54.214Z,15.60
2022-10-16T06:41:22.721Z,15.70
2022-10-16T06:43:49.766Z,15.70
2022-10-16T06:46:19.429Z,15.70
2022-10-16T06:48:46.119Z,15.70
2022-10-16T06:51:23.781Z,15.70
2022-10-16T06:54:07.655Z,15.70
2022-10-16T06:56:37.032Z,15.70
2022-10-16T06:59:04.240Z,15.70
2022-10-16T07:01:31.075Z,15.70
2022-10-16T07:03:58.310Z,15.70
2022-10-16T07:06:27.422Z,15.80
2022-10-16T07:08:54.230Z,15.70
2022-10-16T07:11:23.843Z,15.80
2022-10-16T07:13:55.830Z,15.80
2022-10-16T07:16:28.131Z,15.80
2022-10-16T07:18:59.948Z,15.80
2022-10-16T07:21:36.190Z,15.90
2022-10-16T07:24:03.179Z,15.90
2022-10-16T07:26:32.047Z,15.90
2022-10-16T07:28:59.075Z,16.00
2022-10-16T07:31:28.918Z,16.00
2022-10-16T07:33:55.861Z,16.10
2022-10-16T07:36:24.974Z,16.10
2022-10-16T07:38:54.170Z,16.20
2022-10-16T07:41:23.979Z,16.20
2022-10-16T07:43:53.494Z,16.20
2022-10-16T07:46:22.371Z,16.30
2022-10-16T07:48:49.396Z,16.20
2022-10-16T07:51:18.574Z,16.30
2022-10-16T07:53:45.432Z,16.30
2022-10-16T07:56:14.995Z,16.40
2022-10-16T07:58:42.143Z,16.40
2022-10-16T08:01:11.272Z,16.50
2022-10-16T08:03:38.774Z,16.50
2022-10-16T08:06:08.636Z,16.50
2022-10-16T08:08:36.256Z,16.60
2022-10-16T08:11:04.738Z,16.60
2022-10-16T08:13:32.096Z,16.60
2022-10-16T08:15:58.702Z,16.70
2022-10-16T08:18:27.983Z,16.70
2022-10-16T08:20:58.999Z,16.70
2022-10-16T08:23:27.063Z,16.90
2022-10-16T08:25:55.055Z,17.00
2022-10-16T08:28:22.217Z,17.20
2022-10-16T08:30:49.061Z,17.40
2022-10-16T08:33:15.702Z,17.60
2022-10-16T08:35:42.484Z,17.60
2022-10-16T08:38:11.724Z,17.60
2022-10-16T08:40:38.633Z,17.70
2022-10-16T08:43:36.340Z,17.60
2022-10-16T08:46:49.724Z,17.50
2022-10-16T08:49:18.608Z,17.50
2022-10-16T08:51:47.398Z,17.50
2022-10-16T08:54:20.124Z,17.40
2022-10-16T08:56:49.284Z,17.40
2022-10-16T08:59:17.474Z,17.50
2022-10-16T09:01:51.334Z,17.60
2022-10-16T09:04:17.852Z,17.60
2022-10-16T09:06:53.214Z,17.70
2022-10-16T09:09:35.136Z,17.80
2022-10-16T09:12:31.829Z,17.90
2022-10-16T09:15:09.788Z,18.20
2022-10-16T09:17:36.382Z,18.50
2022-10-16T09:20:19.021Z,18.90
2022-10-16T09:22:46.089Z,19.40
2022-10-16T09:25:22.752Z,19.80
2022-10-16T09:27:56.589Z,20.30
2022-10-16T09:30:23.968Z,20.80
2022-10-16T09:32:54.556Z,21.30
2022-10-16T09:35:32.305Z,21.60
2022-10-16T09:37:59.250Z,21.80
2022-10-16T09:40:35.710Z,21.90
2022-10-16T09:43:22.629Z,21.90
2022-10-16T09:46:29.909Z,22.10
2022-10-16T09:48:59.742Z,22.20
2022-10-16T09:51:32.217Z,22.40
2022-10-16T09:54:19.107Z,22.50
2022-10-16T09:56:47.668Z,23.00
2022-10-16T09:59:24.613Z,23.70
2022-10-16T10:01:53.759Z,23.90
2022-10-16T10:04:21.590Z,24.20
2022-10-16T10:06:53.884Z,24.40
2022-10-16T10:09:23.286Z,25.00
2022-10-16T10:11:52.957Z,25.80
2022-10-16T10:14:37.299Z,26.40
2022-10-16T10:17:04.025Z,27.00
2022-10-16T10:19:32.943Z,27.20
2022-10-16T10:21:59.778Z,27.30
2022-10-16T10:24:26.503Z,27.70
2022-10-16T10:27:05.897Z,27.70
2022-10-16T10:29:40.493Z,27.80
2022-10-16T10:32:31.690Z,27.80
2022-10-16T10:35:16.817Z,27.90
2022-10-16T10:37:45.673Z,27.80
2022-10-16T10:40:34.039Z,27.70
2022-10-16T10:43:10.921Z,28.20
2022-10-16T10:45:47.682Z,28.00
2022-10-16T10:48:39.478Z,27.70
2022-10-16T10:51:11.874Z,26.90
2022-10-16T10:54:14.196Z,26.40
2022-10-16T10:56:46.270Z,25.90
2022-10-16T11:00:03.922Z,25.40
2022-10-16T11:03:03.552Z,25.50
2022-10-16T11:05:40.443Z,24.90
2022-10-16T11:08:19.558Z,24.60
2022-10-16T11:11:09.845Z,24.10
2022-10-16T11:13:43.844Z,23.70
2022-10-16T11:16:32.527Z,23.30
2022-10-16T11:19:05.346Z,22.80
2022-10-16T11:21:39.840Z,22.70
2022-10-16T11:24:17.236Z,22.50
2022-10-16T11:26:48.210Z,22.40
2022-10-16T11:29:26.353Z,22.20
2022-10-16T11:32:13.813Z,22.00
2022-10-16T11:34:48.769Z,21.90
2022-10-16T11:37:22.376Z,21.90
2022-10-16T11:39:49.832Z,21.70
2022-10-16T11:42:31.381Z,21.80
2022-10-16T11:45:15.927Z,21.90
2022-10-16T11:47:59.332Z,21.90
2022-10-16T11:50:39.614Z,21.80
2022-10-16T11:53:40.023Z,21.80
2022-10-16T11:56:07.145Z,21.80
2022-10-16T11:59:01.863Z,21.80
2022-10-16T12:01:34.337Z,21.80
2022-10-16T12:04:18.073Z,21.90
2022-10-16T12:06:58.463Z,21.90
2022-10-16T12:09:33.703Z,22.10
2022-10-16T12:12:01.207Z,22.20
2022-10-16T12:14:42.955Z,22.30
2022-10-16T12:17:28.447Z,22.40
2022-10-16T12:20:20.888Z,22.40
2022-10-16T12:22:51.831Z,22.20
2022-10-16T12:25:26.625Z,22.10
2022-10-16T12:27:57.647Z,22.00
2022-10-16T12:30:26.843Z,21.90
2022-10-16T12:32:57.016Z,21.80
2022-10-16T12:35:31.180Z,21.70
2022-10-16T12:38:18.963Z,21.50
2022-10-16T12:40:49.069Z,21.50
2022-10-16T12:43:29.015Z,21.40
2022-10-16T12:46:12.273Z,21.30
2022-10-16T12:48:48.638Z,21.30
2022-10-16T12:51:27.020Z,21.20
2022-10-16T12:54:17.806Z,21.10
2022-10-16T12:57:06.501Z,21.00
2022-10-16T13:00:01.845Z,21.00
2022-10-16T13:03:00.003Z,21.00
2022-10-16T13:08:31.886Z,20.90
2022-10-16T13:11:29.243Z,20.80
2022-10-16T13:14:14.713Z,20.70
2022-10-16T13:16:55.996Z,20.70
2022-10-16T13:19:54.203Z,20.60
2022-10-16T13:22:57.891Z,20.60
2022-10-16T13:25:46.210Z,20.50
2022-10-16T13:28:13.927Z,20.50
2022-10-16T13:30:44.523Z,20.50
2022-10-16T13:33:19.144Z,20.50
2022-10-16T13:35:56.560Z,20.40
2022-10-16T13:38:26.648Z,20.50
2022-10-16T13:41:01.828Z,20.50
2022-10-16T13:43:33.577Z,20.50
2022-10-16T13:46:17.105Z,20.50
2022-10-16T13:48:44.931Z,20.50
2022-10-16T13:51:19.346Z,20.40
2022-10-16T13:53:47.383Z,20.40
2022-10-16T13:56:17.634Z,20.30
2022-10-16T13:58:45.675Z,20.30
2022-10-16T14:01:15.277Z,20.30
2022-10-16T14:03:43.121Z,20.40
2022-10-16T14:06:16.811Z,20.40
2022-10-16T14:08:44.406Z,20.40
2022-10-16T14:11:11.442Z,20.40
2022-10-16T14:13:48.649Z,20.40
2022-10-16T14:16:30.017Z,20.40
2022-10-16T14:19:02.328Z,20.60
2022-10-16T14:21:29.562Z,20.70
2022-10-16T14:23:59.059Z,20.90
2022-10-16T14:26:28.514Z,21.10
2022-10-16T14:29:14.758Z,21.30
2022-10-16T14:31:43.946Z,21.80
2022-10-16T14:34:33.655Z,22.30
2022-10-16T14:39:41.555Z,22.80
2022-10-16T14:42:25.267Z,23.10
2022-10-16T14:44:53.990Z,23.20
2022-10-16T14:47:26.267Z,23.20
2022-10-16T14:49:56.789Z,23.20
2022-10-16T14:52:23.654Z,23.30
2022-10-16T14:54:51.190Z,23.40
2022-10-16T14:57:20.356Z,23.20
2022-10-16T14:59:48.560Z,23.20
2022-10-16T15:02:38.440Z,23.00
2022-10-16T15:05:23.347Z,22.90
2022-10-16T15:07:50.185Z,22.70
2022-10-16T15:10:20.541Z,22.50
2022-10-16T15:12:47.345Z,22.30
2022-10-16T15:15:37.331Z,22.30
2022-10-16T15:18:04.789Z,22.10
2022-10-16T15:20:36.486Z,22.10
2022-10-16T15:23:23.009Z,22.00
2022-10-16T15:25:54.711Z,21.90
2022-10-16T15:28:27.489Z,21.90
2022-10-16T15:30:56.750Z,22.00
2022-10-16T15:33:37.067Z,22.30
2022-10-16T15:36:07.581Z,22.80
2022-10-16T15:38:34.456Z,23.20
2022-10-16T15:41:01.104Z,23.60
2022-10-16T15:43:28.059Z,24.00
2022-10-16T15:46:07.313Z,24.40
2022-10-16T15:48:34.464Z,25.10
2022-10-16T15:51:05.224Z,25.70
2022-10-16T15:53:31.885Z,26.10
2022-10-16T15:55:58.515Z,26.70
2022-10-16T15:58:25.418Z,26.80
2022-10-16T16:01:01.781Z,26.70
2022-10-16T16:03:29.097Z,26.80
2022-10-16T16:05:55.889Z,26.40
2022-10-16T16:08:22.685Z,25.90
2022-10-16T16:11:07.521Z,25.40
2022-10-16T16:13:34.609Z,24.60
2022-10-16T16:16:01.375Z,24.00
2022-10-16T16:18:29.544Z,23.60
2022-10-16T16:20:58.626Z,23.20
2022-10-16T16:23:27.502Z,22.90
2022-10-16T16:26:27.412Z,22.60
2022-10-16T16:28:55.420Z,22.30
2022-10-16T16:31:25.431Z,22.10
2022-10-16T16:33:52.321Z,21.80
2022-10-16T16:36:19.229Z,21.60
2022-10-16T16:38:49.247Z,21.40
2022-10-16T16:41:24.336Z,21.20
2022-10-16T16:43:55.702Z,21.00
2022-10-16T16:46:25.997Z,20.80
2022-10-16T16:48:54.407Z,20.60
2022-10-16T16:51:21.249Z,20.50
2022-10-16T16:53:51.254Z,20.30
2022-10-16T16:56:21.247Z,20.20
2022-10-16T16:58:49.873Z,20.00
2022-10-16T17:01:21.409Z,19.90
2022-10-16T17:03:51.410Z,19.70
2022-10-16T17:06:21.917Z,19.60
2022-10-16T17:08:50.293Z,19.50
2022-10-16T17:11:20.729Z,19.40
2022-10-16T17:13:51.185Z,19.30
2022-10-16T17:16:24.232Z,19.10
2022-10-16T17:18:51.008Z,19.00
2022-10-16T17:21:17.778Z,18.90
2022-10-16T17:23:44.441Z,18.80
2022-10-16T17:26:16.345Z,18.70
2022-10-16T17:28:44.370Z,18.60
2022-10-16T17:31:11.997Z,18.50
2022-10-16T17:33:39.377Z,18.40
2022-10-16T17:36:06.978Z,18.30
2022-10-16T17:38:34.029Z,18.20
2022-10-16T17:41:12.518Z,18.00
2022-10-16T17:43:39.712Z,17.90
2022-10-16T17:46:09.758Z,17.90
2022-10-16T17:48:48.427Z,17.90
2022-10-16T17:51:17.787Z,17.80
2022-10-16T17:53:47.868Z,17.80
2022-10-16T17:56:14.928Z,17.70
2022-10-16T17:58:42.075Z,17.70
2022-10-16T18:01:14.110Z,17.60
2022-10-16T18:03:41.034Z,17.60
2022-10-16T18:06:13.498Z,17.50
2022-10-16T18:08:42.408Z,17.50
2022-10-16T18:11:12.694Z,17.40
2022-10-16T18:13:40.054Z,17.40
2022-10-16T18:16:10.596Z,17.30
2022-10-16T18:18:40.707Z,17.30
2022-10-16T18:21:11.056Z,17.30
2022-10-16T18:23:38.286Z,17.20
2022-10-16T18:26:06.110Z,17.20
2022-10-16T18:28:33.472Z,17.20
2022-10-16T18:31:03.383Z,17.10
2022-10-16T18:33:30.907Z,17.10
2022-10-16T18:36:05.160Z,17.00
2022-10-16T18:38:32.199Z,17.00
2022-10-16T18:41:01.784Z,17.00
2022-10-16T18:43:30.494Z,17.00
2022-10-16T18:46:04.295Z,16.90
2022-10-16T18:48:31.889Z,16.80
2022-10-16T18:51:23.935Z,16.80
2022-10-16T18:53:56.106Z,16.70
2022-10-16T18:56:24.244Z,16.70
2022-10-16T18:58:59.133Z,16.60
2022-10-16T19:01:28.815Z,16.50
2022-10-16T19:04:04.201Z,16.50
2022-10-16T19:06:39.510Z,16.50
2022-10-16T19:09:06.480Z,16.40
2022-10-16T19:11:35.762Z,16.40
2022-10-16T19:14:10.665Z,16.40
2022-10-16T19:16:38.037Z,16.30
2022-10-16T19:19:07.805Z,16.30
2022-10-16T19:21:41.668Z,16.30
2022-10-16T19:24:09.448Z,16.30
2022-10-16T19:26:39.559Z,16.30
2022-10-16T19:29:10.766Z,16.30
2022-10-16T19:31:38.324Z,16.30
2022-10-16T19:34:07.545Z,16.20
2022-10-16T19:36:36.589Z,16.20
2022-10-16T19:39:11.634Z,16.20
2022-10-16T19:41:38.809Z,16.20
2022-10-16T19:44:09.553Z,16.20
2022-10-16T19:46:36.860Z,16.20
2022-10-16T19:49:09.310Z,16.20
2022-10-16T19:51:36.650Z,16.10
2022-10-16T19:54:06.504Z,16.10
2022-10-16T19:56:37.330Z,16.10
2022-10-16T19:59:06.138Z,16.10
2022-10-16T20:01:33.334Z,16.00
2022-10-16T20:04:00.264Z,16.00
2022-10-16T20:06:29.649Z,16.00
2022-10-16T20:08:59.183Z,16.00
2022-10-16T20:11:30.746Z,16.00
2022-10-16T20:13:58.463Z,15.90
2022-10-16T20:16:26.487Z,15.90
2022-10-16T20:18:54.114Z,15.90
2022-10-16T20:21:26.884Z,15.90
2022-10-16T20:23:53.658Z,15.80
2022-10-16T20:26:23.942Z,15.90
2022-10-16T20:28:51.539Z,15.80
2022-10-16T20:31:22.635Z,15.80
2022-10-16T20:33:51.112Z,15.80
2022-10-16T20:36:21.563Z,15.80
2022-10-16T20:38:48.375Z,15.70
2022-10-16T20:41:16.446Z,15.70
2022-10-16T20:43:47.139Z,15.80
2022-10-16T20:46:16.270Z,15.70
2022-10-16T20:48:46.831Z,15.70
2022-10-16T20:51:24.278Z,15.70
2022-10-16T20:54:11.222Z,15.70
2022-10-16T20:56:37.981Z,15.70
2022-10-16T20:59:07.333Z,15.60
2022-10-16T21:01:36.284Z,15.70
2022-10-16T21:04:09.749Z,15.70
2022-10-16T21:06:38.939Z,15.60
2022-10-16T21:09:06.743Z,15.60
2022-10-16T21:11:35.306Z,15.60
2022-10-16T21:14:04.268Z,15.60
2022-10-16T21:16:31.691Z,15.60
2022-10-16T21:18:58.607Z,15.60
2022-10-16T21:21:28.166Z,15.60
2022-10-16T21:23:56.868Z,15.60
2022-10-16T21:26:26.363Z,15.50
2022-10-16T21:29:03.595Z,15.50
2022-10-16T21:31:30.300Z,15.50
2022-10-16T21:33:59.623Z,15.50
2022-10-16T21:36:30.709Z,15.50
2022-10-16T21:39:01.985Z,15.50
2022-10-16T21:41:29.730Z,15.50
2022-10-16T21:43:57.416Z,15.50
2022-10-16T21:46:26.750Z,15.40
2022-10-16T21:48:55.067Z,15.40
2022-10-16T21:51:29.607Z,15.30
2022-10-16T21:53:56.569Z,15.30
2022-10-16T21:56:25.486Z,15.30
2022-10-16T21:58:52.627Z,15.20
2022-10-16T22:01:22.841Z,15.20
2022-10-16T22:03:50.105Z,15.20
2022-10-16T22:08:54.358Z,15.10
2022-10-16T22:11:23.863Z,15.10
2022-10-16T22:13:54.052Z,15.10
2022-10-16T22:16:25.588Z,15.10
2022-10-16T22:18:56.752Z,15.00
2022-10-16T22:21:26.419Z,14.90
2022-10-16T22:23:53.059Z,14.90
2022-10-16T22:26:19.974Z,14.90
2022-10-16T22:28:46.698Z,14.90
2022-10-16T22:31:14.963Z,14.80
2022-10-16T22:33:42.270Z,14.90
2022-10-16T22:36:11.740Z,14.80
2022-10-16T22:38:38.799Z,14.80
2022-10-16T22:41:11.807Z,14.80
2022-10-16T22:43:41.361Z,14.70
2022-10-16T22:46:10.350Z,14.60
2022-10-16T22:48:37.373Z,14.60
2022-10-16T22:51:05.860Z,14.60
2022-10-16T22:53:33.363Z,14.60
2022-10-16T22:56:00.281Z,14.50
2022-10-16T22:58:27.521Z,14.40
2022-10-16T23:00:54.222Z,14.40
2022-10-16T23:03:21.020Z,14.40
2022-10-16T23:05:49.930Z,14.40
2022-10-16T23:08:16.772Z,14.40
2022-10-16T23:10:45.199Z,14.40
2022-10-16T23:13:13.066Z,14.40
2022-10-16T23:15:41.094Z,14.30
2022-10-16T23:18:08.075Z,14.20
2022-10-16T23:20:35.129Z,14.20
2022-10-16T23:23:01.836Z,14.20
2022-10-16T23:25:28.545Z,14.20
2022-10-16T23:27:58.027Z,14.20
2022-10-16T23:30:24.669Z,14.10
2022-10-16T23:32:51.295Z,14.10
2022-10-16T23:35:20.424Z,14.00
2022-10-16T23:37:49.359Z,14.00
2022-10-16T23:40:16.229Z,14.00
2022-10-16T23:42:42.891Z,13.90
2022-10-16T23:45:12.019Z,13.90
2022-10-16T23:47:38.609Z,13.90
2022-10-16T23:50:08.309Z,14.00
2022-10-16T23:52:34.936Z,14.00
2022-10-16T23:55:01.536Z,14.00
2022-10-16T23:57:28.418Z,13.90
2022-10-16T23:59:55.202Z,13.90
